EGUL

RAF Lakenheath Airport

Lakenheath, United Kingdom
METAR EGUL 170555Z AUTO 24004KT 4400 BR BKN002 M03/M03 A3021 RMK AO2 VIS 4400V6000 VIS 2600 RWY06 SLP234 $
Observed Flight Rules
Dec-17 @ 05:55 UTC (25 minutes ago) Instrument Flight Rules
Wind Visibility Clouds Conditions
240° at 4 knots 4,394 meters
  • Broken at 200' AGL
  • Mist
Temperatures Readings
Current -3°C / 27°F
Dewpoint -3°C / 27°F
Humidity 100%
Altimeter 30.21" Hg
Pressure 1023.4 hPa
Elevation 10
METAR EGUL 170555Z AUTO 24004KT 4400 BR BKN002 M03/M03 A3021 RMK AO2 VIS 4400V6000 VIS 2600 RWY06 SLP234 $
Observed Flight Rules
Dec-17 @ 05:55 UTC
(25 minutes ago)
LIFR
Wind Visibility
240° at 4 knots 4,394 meters
Clouds
  • Broken at 200' AGL
Conditions
  • Mist
Temperature Dewpoint
-3°C / 27°F -3°C / 27°F
Humidity Altimeter Pressure
100% 30.21" Hg 1023.4 hPa